Time;durP1;ratioP1;P1;durP2;ratioP2;P2;SDS_P1;SDS_P2;PMS_P1;PMS_P2;Temp;Humidity;BMP_temperature;BMP_pressure;BME280_temperature;BME280_humidity;BME280_pressure;Samples;Min_cycle;Max_cycle;Signal;HPM_P1;HPM_P2
2021/08/22 00:00:31;;;;;;;4.43;4.03;;;18.30;1.00;;;;;;6163684;23;21274;-84
2021/08/22 00:03:00;;;;;;;5.00;4.33;;;18.30;1.00;;;;;;6161001;23;20410;-84
2021/08/22 00:05:26;;;;;;;5.10;4.60;;;18.20;1.00;;;;;;6159860;23;20418;-79
2021/08/22 00:07:53;;;;;;;4.90;4.40;;;18.20;1.00;;;;;;6159985;23;20513;-80
2021/08/22 00:10:21;;;;;;;4.30;4.00;;;18.20;1.00;;;;;;6158298;23;20473;-80
2021/08/22 00:12:48;;;;;;;6.00;3.80;;;18.10;1.00;;;;;;6158585;23;20374;-79
2021/08/22 00:15:14;;;;;;;4.17;3.77;;;18.10;1.00;;;;;;6164181;23;20373;-80
2021/08/22 00:17:41;;;;;;;6.10;4.47;;;18.10;1.00;;;;;;6161993;23;20394;-83
2021/08/22 00:20:11;;;;;;;4.40;3.43;;;18.10;1.00;;;;;;6161912;23;20371;-84
2021/08/22 00:22:38;;;;;;;5.40;4.27;;;18.00;1.00;;;;;;6160817;23;21147;-84
2021/08/22 00:25:07;;;;;;;4.80;3.93;;;18.00;1.00;;;;;;6162531;23;20364;-84
2021/08/22 00:27:34;;;;;;;4.70;3.80;;;18.00;1.00;;;;;;6162269;23;20390;-83
2021/08/22 00:30:04;;;;;;;4.73;3.67;;;18.00;1.00;;;;;;6162381;23;20398;-83
2021/08/22 00:32:31;;;;;;;5.40;4.43;;;17.90;1.00;;;;;;6164515;23;20412;-84
2021/08/22 00:34:58;;;;;;;4.13;3.73;;;17.90;1.00;;;;;;6164410;23;20387;-81
2021/08/22 00:37:26;;;;;;;4.37;3.97;;;17.90;1.00;;;;;;6164381;23;20429;-83
2021/08/22 00:39:54;;;;;;;5.10;4.10;;;17.80;1.00;;;;;;6164388;23;21276;-82
2021/08/22 00:42:21;;;;;;;4.80;4.20;;;17.80;1.00;;;;;;6167492;23;20457;-81
2021/08/22 00:44:48;;;;;;;4.27;3.73;;;17.80;1.00;;;;;;6167052;23;20418;-81
2021/08/22 00:47:14;;;;;;;4.10;3.80;;;17.70;1.00;;;;;;6171287;23;21227;-81
2021/08/22 00:49:41;;;;;;;4.47;3.77;;;17.70;1.00;;;;;;6144608;23;20772;-84
2021/08/22 00:52:08;;;;;;;4.50;4.10;;;17.70;1.00;;;;;;6121166;23;20373;-84
2021/08/22 00:54:37;;;;;;;3.70;3.00;;;17.70;1.00;;;;;;6147262;23;20388;-84
2021/08/22 00:57:05;;;;;;;6.53;4.10;;;17.70;1.00;;;;;;6187795;23;20359;-85
2021/08/22 00:59:31;;;;;;;8.17;4.53;;;17.70;1.00;;;;;;6190192;23;20362;-85
2021/08/22 01:02:01;;;;;;;7.00;6.30;;;17.70;1.00;;;;;;6189719;23;20377;-85
2021/08/22 01:04:35;;;;;;;4.83;4.07;;;17.70;1.00;;;;;;6190016;23;20367;-85
2021/08/22 01:07:06;;;;;;;4.57;4.17;;;17.70;1.00;;;;;;6189895;23;20370;-85
2021/08/22 01:09:40;;;;;;;4.23;3.53;;;17.70;1.00;;;;;;6188799;23;20345;-84
2021/08/22 01:12:11;;;;;;;4.60;4.20;;;17.70;1.00;;;;;;6164047;23;20385;-86
2021/08/22 01:14:48;;;;;;;4.33;3.93;;;17.70;1.00;;;;;;6189175;23;20350;-85
2021/08/22 01:17:17;;;;;;;4.27;3.70;;;17.60;1.00;;;;;;6189118;23;20382;-85
2021/08/22 01:19:58;;;;;;;5.83;4.10;;;17.70;1.00;;;;;;6189511;23;20401;-86
2021/08/22 01:22:26;;;;;;;4.60;4.20;;;17.70;1.00;;;;;;6163209;23;20421;-85
2021/08/22 01:24:57;;;;;;;5.03;4.17;;;17.60;1.00;;;;;;6163448;23;20391;-84
2021/08/22 01:27:25;;;;;;;4.90;4.30;;;17.60;1.00;;;;;;6189555;23;20370;-85
2021/08/22 01:29:59;;;;;;;4.40;4.00;;;17.60;1.00;;;;;;6188464;23;20370;-85
2021/08/22 01:32:35;;;;;;;5.50;4.20;;;17.50;1.00;;;;;;6189153;23;20449;-85
2021/08/22 01:35:02;;;;;;;4.97;4.57;;;17.50;1.00;;;;;;6162695;23;20405;-85
2021/08/22 01:37:29;;;;;;;4.40;4.00;;;17.50;1.00;;;;;;6163486;23;20386;-85
2021/08/22 01:39:58;;;;;;;5.00;4.50;;;17.40;1.00;;;;;;6188406;23;20443;-84
2021/08/22 01:42:26;;;;;;;6.43;4.90;;;17.40;1.00;;;;;;6162747;23;20383;-85
2021/08/22 01:44:53;;;;;;;5.10;4.70;;;17.40;1.00;;;;;;6188327;23;20365;-85
2021/08/22 01:47:20;;;;;;;9.03;4.90;;;17.40;1.00;;;;;;6188489;23;20399;-85
2021/08/22 01:49:48;;;;;;;5.83;5.27;;;17.40;1.00;;;;;;6137983;23;20673;-84
2021/08/22 01:52:16;;;;;;;4.60;4.20;;;17.40;1.00;;;;;;6161668;23;20390;-84
2021/08/22 01:54:43;;;;;;;5.07;4.67;;;17.40;1.00;;;;;;6161919;23;20389;-85
2021/08/22 01:57:10;;;;;;;5.37;4.87;;;17.40;1.00;;;;;;6163669;23;20374;-86
2021/08/22 01:59:38;;;;;;;5.10;4.63;;;17.40;1.00;;;;;;6187525;23;20374;-85
2021/08/22 02:02:06;;;;;;;5.20;4.80;;;17.40;1.00;;;;;;6187283;23;20373;-85
2021/08/22 02:04:41;;;;;;;6.90;5.40;;;17.40;1.00;;;;;;6162181;23;20358;-86
2021/08/22 02:07:14;;;;;;;6.03;5.43;;;17.40;1.00;;;;;;6163026;23;20409;-86
2021/08/22 02:09:49;;;;;;;5.60;4.60;;;17.40;1.00;;;;;;6187301;23;20413;-86
2021/08/22 02:12:18;;;;;;;5.27;4.80;;;17.40;1.00;;;;;;6187040;23;20358;-86
2021/08/22 02:14:53;;;;;;;5.80;4.80;;;17.40;1.00;;;;;;6187220;23;20426;-86
2021/08/22 02:17:23;;;;;;;5.30;4.80;;;17.30;1.00;;;;;;6161194;23;20412;-86
2021/08/22 02:19:52;;;;;;;6.17;5.20;;;17.30;1.00;;;;;;6187009;23;20390;-86
2021/08/22 02:22:20;;;;;;;5.00;4.50;;;17.40;1.00;;;;;;6186284;23;20442;-86
2021/08/22 02:24:47;;;;;;;4.80;4.40;;;17.40;1.00;;;;;;6185163;23;20346;-85
2021/08/22 02:27:14;;;;;;;5.20;4.57;;;17.40;1.00;;;;;;6186720;23;20372;-85
2021/08/22 02:29:48;;;;;;;4.97;4.40;;;17.40;1.00;;;;;;6188205;23;20374;-86
2021/08/22 02:32:16;;;;;;;4.87;4.47;;;17.40;1.00;;;;;;6187334;23;20385;-85
2021/08/22 02:34:43;;;;;;;5.93;5.30;;;17.40;1.00;;;;;;6159282;23;20370;-85
2021/08/22 02:37:10;;;;;;;5.17;4.50;;;17.40;1.00;;;;;;6184761;23;20385;-86
2021/08/22 02:39:39;;;;;;;5.27;4.70;;;17.40;1.00;;;;;;6156622;23;20388;-86
2021/08/22 02:42:06;;;;;;;5.10;4.57;;;17.40;1.00;;;;;;6160687;23;20378;-85
2021/08/22 02:44:34;;;;;;;4.73;4.20;;;17.40;1.00;;;;;;6182688;23;20389;-85
2021/08/22 02:47:01;;;;;;;7.97;4.63;;;17.40;1.00;;;;;;6155927;23;20385;-85
2021/08/22 02:49:28;;;;;;;4.70;4.30;;;17.40;1.00;;;;;;6150941;23;20426;-84
2021/08/22 02:51:56;;;;;;;5.20;4.40;;;17.40;1.00;;;;;;6167237;23;20416;-85
2021/08/22 02:54:24;;;;;;;4.57;4.17;;;17.50;1.00;;;;;;6157902;23;20408;-85
2021/08/22 02:56:52;;;;;;;6.27;3.60;;;17.40;1.00;;;;;;6158204;23;20442;-83
2021/08/22 02:59:19;;;;;;;5.33;4.83;;;17.50;1.00;;;;;;6129772;23;20422;-83
2021/08/22 03:01:46;;;;;;;5.47;4.47;;;17.40;1.00;;;;;;6157812;23;20430;-83
2021/08/22 03:04:14;;;;;;;4.47;4.03;;;17.40;1.00;;;;;;6157260;23;20418;-83
2021/08/22 03:06:41;;;;;;;4.63;4.23;;;17.40;1.00;;;;;;6159542;23;20366;-84
2021/08/22 03:09:08;;;;;;;4.53;4.13;;;17.40;1.00;;;;;;6134098;23;20394;-85
2021/08/22 03:11:34;;;;;;;5.20;4.30;;;17.40;1.00;;;;;;6166661;23;20733;-83
2021/08/22 03:14:03;;;;;;;4.43;4.03;;;17.40;1.00;;;;;;6170739;23;20407;-84
2021/08/22 03:16:30;;;;;;;4.93;4.53;;;17.40;1.00;;;;;;6136567;23;20395;-85
2021/08/22 03:18:57;;;;;;;5.10;4.40;;;17.40;1.00;;;;;;6156397;23;20378;-85
2021/08/22 03:21:24;;;;;;;6.37;5.10;;;17.40;1.00;;;;;;6157218;23;20786;-86
2021/08/22 03:23:51;;;;;;;4.40;4.00;;;17.50;1.00;;;;;;6183899;23;20566;-86
2021/08/22 03:26:18;;;;;;;5.00;4.60;;;17.40;1.00;;;;;;6156474;23;20374;-84
2021/08/22 03:28:45;;;;;;;5.97;4.07;;;17.40;1.00;;;;;;6133938;23;20410;-83
2021/08/22 03:31:13;;;;;;;5.10;4.70;;;17.30;1.00;;;;;;6158156;23;20407;-84
2021/08/22 03:33:40;;;;;;;4.30;3.80;;;17.30;1.00;;;;;;6159137;23;20478;-85
2021/08/22 03:36:07;;;;;;;4.63;4.10;;;17.30;1.00;;;;;;6157807;23;20426;-83
2021/08/22 03:38:34;;;;;;;4.20;3.77;;;17.30;1.00;;;;;;6160584;23;20455;-84
2021/08/22 03:41:01;;;;;;;5.17;4.70;;;17.20;1.00;;;;;;6163711;23;20450;-84
2021/08/22 03:43:28;;;;;;;5.13;4.63;;;17.20;1.00;;;;;;6182939;23;21010;-85
2021/08/22 03:45:54;;;;;;;4.60;4.10;;;17.20;1.00;;;;;;6157154;23;20386;-86
2021/08/22 03:48:25;;;;;;;5.93;4.50;;;17.20;1.00;;;;;;6180079;23;20382;-85
2021/08/22 03:50:52;;;;;;;6.20;5.20;;;17.20;1.00;;;;;;6178295;23;20374;-82
2021/08/22 03:53:19;;;;;;;5.20;4.70;;;17.20;1.00;;;;;;6144319;23;20402;-84
2021/08/22 03:55:45;;;;;;;4.63;4.23;;;17.20;1.00;;;;;;6163647;23;20382;-83
2021/08/22 03:58:12;;;;;;;6.40;4.57;;;17.20;1.00;;;;;;6164124;23;20811;-83
2021/08/22 04:00:39;;;;;;;6.80;4.70;;;17.10;1.00;;;;;;6157977;23;21175;-84
2021/08/22 04:03:06;;;;;;;4.87;4.37;;;17.10;1.00;;;;;;6159692;23;21807;-84
2021/08/22 04:05:35;;;;;;;4.53;4.13;;;17.10;1.00;;;;;;6158708;23;21075;-83
2021/08/22 04:08:02;;;;;;;6.40;4.03;;;17.10;1.00;;;;;;6158472;23;20465;-83
2021/08/22 04:10:29;;;;;;;4.43;4.03;;;17.10;1.00;;;;;;6133915;23;20528;-84
2021/08/22 04:12:56;;;;;;;4.03;3.73;;;17.00;1.00;;;;;;6159773;23;20423;-84
2021/08/22 04:15:24;;;;;;;5.20;4.70;;;17.10;1.00;;;;;;6162665;23;20510;-83
2021/08/22 04:17:51;;;;;;;6.30;4.73;;;17.10;1.00;;;;;;6160800;23;20404;-83
2021/08/22 04:20:22;;;;;;;5.10;4.37;;;17.10;1.00;;;;;;6164138;23;20397;-83
2021/08/22 04:22:51;;;;;;;6.13;4.40;;;17.10;1.00;;;;;;6137053;23;20476;-84
2021/08/22 04:25:18;;;;;;;4.43;4.00;;;17.10;1.00;;;;;;6137076;23;21168;-84
2021/08/22 04:27:45;;;;;;;4.77;4.37;;;17.10;1.00;;;;;;6144886;23;20381;-83
2021/08/22 04:30:13;;;;;;;4.27;3.87;;;17.10;1.00;;;;;;6157549;23;20401;-84
2021/08/22 04:32:40;;;;;;;4.67;4.27;;;17.20;1.00;;;;;;6145615;23;20410;-84
2021/08/22 04:35:08;;;;;;;4.17;3.87;;;17.20;1.00;;;;;;6158600;23;20389;-83
2021/08/22 04:37:35;;;;;;;4.20;3.80;;;17.20;1.00;;;;;;6157420;23;20448;-84
2021/08/22 04:40:07;;;;;;;4.73;4.20;;;17.20;1.00;;;;;;6156271;23;20531;-84
2021/08/22 04:42:34;;;;;;;6.70;4.23;;;17.30;1.00;;;;;;6156601;23;20430;-84
2021/08/22 04:45:02;;;;;;;4.60;3.63;;;17.30;1.00;;;;;;6157953;23;20430;-83
2021/08/22 04:47:29;;;;;;;3.93;3.53;;;17.30;1.00;;;;;;6157633;23;20378;-84
2021/08/22 04:49:55;;;;;;;4.73;3.70;;;17.20;1.00;;;;;;6158835;23;20405;-83
2021/08/22 04:52:22;;;;;;;4.97;3.73;;;17.20;1.00;;;;;;6157352;23;20430;-84
2021/08/22 04:54:49;;;;;;;4.70;3.87;;;17.20;1.00;;;;;;6156933;23;20426;-84
2021/08/22 04:57:17;;;;;;;4.30;3.87;;;17.20;1.00;;;;;;6157423;23;21170;-83
2021/08/22 04:59:44;;;;;;;4.53;4.10;;;17.20;1.00;;;;;;6132267;23;21509;-84
2021/08/22 05:02:11;;;;;;;4.73;4.23;;;17.20;1.00;;;;;;6133998;23;20414;-83
2021/08/22 05:04:38;;;;;;;5.03;4.13;;;17.20;1.00;;;;;;6157721;23;20414;-85
2021/08/22 05:07:05;;;;;;;4.30;3.90;;;17.20;1.00;;;;;;6157065;23;20417;-84
2021/08/22 05:09:32;;;;;;;6.20;3.63;;;17.20;1.00;;;;;;6158951;23;20416;-84
2021/08/22 05:12:00;;;;;;;3.80;3.50;;;17.20;1.00;;;;;;6157798;23;20487;-83
2021/08/22 05:14:32;;;;;;;3.80;3.50;;;17.30;1.00;;;;;;6158517;23;20504;-84
2021/08/22 05:16:58;;;;;;;4.33;3.70;;;17.30;1.00;;;;;;6135486;23;20464;-83
2021/08/22 05:19:25;;;;;;;4.13;3.53;;;17.30;1.00;;;;;;6134667;23;20503;-83
2021/08/22 05:21:52;;;;;;;3.70;3.40;;;17.30;1.00;;;;;;6131763;23;20380;-83
2021/08/22 05:24:22;;;;;;;4.03;3.63;;;17.30;1.00;;;;;;6158951;23;20539;-84
2021/08/22 05:26:49;;;;;;;4.90;4.40;;;17.30;1.00;;;;;;6158690;23;20420;-84
2021/08/22 05:29:16;;;;;;;5.53;3.93;;;17.30;1.00;;;;;;6151221;23;20411;-85
2021/08/22 05:31:44;;;;;;;4.03;3.60;;;17.40;1.00;;;;;;6179522;23;20803;-85
2021/08/22 05:34:11;;;;;;;3.87;3.33;;;17.40;1.00;;;;;;6158004;23;21230;-84
2021/08/22 05:36:38;;;;;;;5.67;4.17;;;17.50;1.00;;;;;;6131094;23;20434;-84
2021/08/22 05:39:06;;;;;;;3.93;3.57;;;17.60;1.00;;;;;;6156956;23;21267;-84
2021/08/22 05:41:33;;;;;;;3.53;3.23;;;17.60;1.00;;;;;;6157011;23;20918;-84
2021/08/22 05:44:00;;;;;;;6.43;3.67;;;17.80;1.00;;;;;;6134081;23;20406;-84
2021/08/22 05:46:28;;;;;;;6.50;3.43;;;17.90;1.00;;;;;;6156760;23;20497;-83
2021/08/22 05:48:56;;;;;;;3.93;3.50;;;18.00;1.00;;;;;;6133166;23;20410;-83
2021/08/22 05:51:23;;;;;;;5.10;3.53;;;18.10;1.00;;;;;;6131944;23;20405;-82
2021/08/22 05:53:50;;;;;;;3.60;3.13;;;18.20;1.00;;;;;;6132953;23;20398;-84
2021/08/22 05:56:18;;;;;;;3.70;3.37;;;18.30;1.00;;;;;;6133428;23;21571;-84
2021/08/22 05:58:45;;;;;;;3.33;3.03;;;18.30;1.00;;;;;;6135262;23;21109;-83
2021/08/22 06:01:12;;;;;;;3.73;3.37;;;18.30;1.00;;;;;;6133973;23;20403;-84
2021/08/22 06:03:39;;;;;;;4.50;4.10;;;18.30;1.00;;;;;;6162441;23;20429;-83
2021/08/22 06:06:08;;;;;;;3.50;2.90;;;18.40;1.00;;;;;;6166518;23;20391;-84
2021/08/22 06:08:36;;;;;;;4.37;3.27;;;18.50;1.00;;;;;;6135259;23;20464;-84
2021/08/22 06:11:05;;;;;;;4.70;3.30;;;18.50;1.00;;;;;;6160565;23;20363;-84
2021/08/22 06:13:32;;;;;;;4.63;3.37;;;18.60;1.00;;;;;;6158689;23;20375;-84
2021/08/22 06:15:59;;;;;;;5.27;3.73;;;18.60;1.00;;;;;;6158551;23;20407;-84
2021/08/22 06:18:26;;;;;;;3.60;3.30;;;18.60;1.00;;;;;;6158148;23;20551;-84
2021/08/22 06:20:53;;;;;;;3.90;3.10;;;18.60;1.00;;;;;;6133505;23;20433;-84
2021/08/22 06:23:21;;;;;;;4.80;3.20;;;18.70;1.00;;;;;;6159434;23;20387;-83
2021/08/22 06:25:48;;;;;;;4.40;4.00;;;18.80;1.00;;;;;;6166607;23;20363;-84
2021/08/22 06:28:15;;;;;;;3.30;3.00;;;18.90;1.00;;;;;;6141507;23;20454;-85
2021/08/22 06:30:42;;;;;;;3.20;2.70;;;19.00;1.00;;;;;;6174178;23;20367;-83
2021/08/22 06:33:09;;;;;;;3.00;2.80;;;19.20;1.00;;;;;;6179563;23;20462;-81
2021/08/22 06:35:36;;;;;;;4.17;3.00;;;19.30;1.00;;;;;;6178637;23;20370;-81
2021/08/22 06:38:03;;;;;;;3.57;3.17;;;19.30;1.00;;;;;;6174616;23;20403;-81
2021/08/22 06:40:33;;;;;;;6.00;3.30;;;19.40;1.00;;;;;;6167546;23;20391;-84
2021/08/22 06:43:00;;;;;;;6.20;2.77;;;19.40;1.00;;;;;;6136517;23;20411;-84
2021/08/22 06:45:27;;;;;;;4.00;3.57;;;19.40;1.00;;;;;;6163496;23;20418;-84
2021/08/22 06:47:54;;;;;;;5.17;3.57;;;19.40;1.00;;;;;;6162909;23;20633;-84
2021/08/22 06:50:23;;;;;;;3.20;2.90;;;19.30;1.00;;;;;;6137238;23;20971;-84
2021/08/22 06:52:50;;;;;;;3.60;2.67;;;19.30;1.00;;;;;;6163270;23;20476;-84
2021/08/22 06:55:19;;;;;;;4.40;2.80;;;19.30;1.00;;;;;;6136627;23;20419;-84
2021/08/22 06:57:47;;;;;;;2.93;2.63;;;19.30;1.00;;;;;;6138144;23;20391;-83
2021/08/22 07:00:15;;;;;;;4.60;3.10;;;19.40;1.00;;;;;;6164167;23;20390;-84
2021/08/22 07:02:43;;;;;;;3.77;3.23;;;19.50;1.00;;;;;;6164395;23;20430;-84
2021/08/22 07:05:11;;;;;;;3.40;2.60;;;19.70;1.00;;;;;;6163888;23;20419;-84
2021/08/22 07:07:38;;;;;;;3.73;3.40;;;19.80;1.00;;;;;;6145774;23;20408;-84
2021/08/22 07:10:06;;;;;;;4.13;3.37;;;19.90;1.00;;;;;;6166762;23;21288;-84
2021/08/22 07:12:32;;;;;;;4.07;2.83;;;20.00;1.00;;;;;;6165406;23;20391;-85
2021/08/22 07:15:01;;;;;;;3.73;3.43;;;20.20;1.00;;;;;;6140240;23;20887;-84
2021/08/22 07:17:30;;;;;;;5.23;2.87;;;20.20;1.00;;;;;;6165412;23;20417;-84
2021/08/22 07:19:56;;;;;;;3.17;2.87;;;20.30;1.00;;;;;;6140418;23;20388;-83
2021/08/22 07:22:23;;;;;;;3.10;2.80;;;20.40;1.00;;;;;;6167401;23;20423;-85
2021/08/22 07:24:50;;;;;;;3.07;2.77;;;20.50;1.00;;;;;;6175587;23;20780;-86
2021/08/22 07:27:17;;;;;;;3.23;2.80;;;20.50;1.00;;;;;;6177735;23;20396;-84
2021/08/22 07:29:44;;;;;;;4.83;3.20;;;20.50;1.00;;;;;;6166431;23;20431;-85
2021/08/22 07:32:13;;;;;;;3.10;2.80;;;20.50;1.00;;;;;;6167024;23;20402;-85
2021/08/22 07:34:40;;;;;;;3.90;2.80;;;20.50;1.00;;;;;;6163191;23;20439;-84
2021/08/22 07:37:07;;;;;;;3.20;2.70;;;20.60;1.00;;;;;;6164393;23;20416;-84
2021/08/22 07:39:34;;;;;;;5.17;3.27;;;20.70;1.00;;;;;;6164528;23;20360;-85
2021/08/22 07:42:01;;;;;;;3.27;2.80;;;20.90;1.00;;;;;;6136203;23;20443;-83
2021/08/22 07:44:28;;;;;;;3.60;3.30;;;21.00;1.00;;;;;;6162098;23;20393;-80
2021/08/22 07:46:54;;;;;;;3.60;2.80;;;21.20;1.00;;;;;;6141617;23;20412;-83
2021/08/22 07:49:23;;;;;;;3.50;2.83;;;21.30;1.00;;;;;;6171883;23;20366;-82
2021/08/22 07:51:50;;;;;;;4.60;3.37;;;21.40;1.00;;;;;;6167698;23;20412;-80
2021/08/22 07:54:17;;;;;;;3.83;3.17;;;21.50;1.00;;;;;;6159250;23;20485;-81
2021/08/22 07:56:45;;;;;;;3.37;3.07;;;21.60;1.00;;;;;;6160774;23;20380;-82
2021/08/22 07:59:12;;;;;;;3.40;3.10;;;21.70;1.00;;;;;;6132754;23;20400;-81
2021/08/22 08:01:39;;;;;;;3.40;3.10;;;21.70;1.00;;;;;;6132438;23;20488;-80
2021/08/22 08:04:06;;;;;;;4.47;3.47;;;21.70;1.00;;;;;;6130233;23;20471;-80
2021/08/22 08:06:34;;;;;;;5.00;4.00;;;21.70;1.00;;;;;;6157802;23;20457;-79
2021/08/22 08:09:01;;;;;;;5.33;3.00;;;21.70;1.00;;;;;;6160548;23;20430;-80
2021/08/22 08:11:30;;;;;;;4.90;3.60;;;21.80;1.00;;;;;;6169370;23;20428;-79
2021/08/22 08:13:57;;;;;;;3.93;3.30;;;21.70;1.00;;;;;;6179503;23;20396;-79
2021/08/22 08:16:23;;;;;;;4.30;3.90;;;21.70;1.00;;;;;;6160475;23;20396;-80
2021/08/22 08:18:50;;;;;;;3.83;3.43;;;21.50;1.00;;;;;;6159749;23;20412;-80
2021/08/22 08:21:17;;;;;;;3.63;3.30;;;21.60;1.00;;;;;;6157459;23;20394;-80
2021/08/22 08:23:45;;;;;;;4.80;4.37;;;21.60;1.00;;;;;;6162408;23;20469;-80
2021/08/22 08:26:12;;;;;;;8.60;7.73;;;21.70;1.00;;;;;;6159110;23;20457;-80
2021/08/22 08:28:40;;;;;;;5.80;4.07;;;21.90;1.00;;;;;;6158836;23;20417;-80
2021/08/22 08:31:07;;;;;;;4.30;3.20;;;22.10;1.00;;;;;;6159580;23;20381;-80
2021/08/22 08:33:34;;;;;;;3.93;3.50;;;22.30;1.00;;;;;;6130374;23;20426;-78
2021/08/22 08:36:00;;;;;;;4.63;4.10;;;22.40;1.00;;;;;;6157740;23;20410;-81
2021/08/22 08:38:27;;;;;;;4.87;4.37;;;22.60;1.00;;;;;;6154002;23;20398;-79
2021/08/22 08:40:55;;;;;;;5.53;4.23;;;22.70;1.00;;;;;;6155920;23;20904;-79
2021/08/22 08:43:23;;;;;;;4.87;3.93;;;22.70;1.00;;;;;;6152684;23;20442;-80
2021/08/22 08:45:52;;;;;;;4.43;3.90;;;22.80;1.00;;;;;;6154462;23;20422;-80
2021/08/22 08:48:22;;;;;;;4.20;3.80;;;22.80;1.00;;;;;;6155706;23;20394;-80
2021/08/22 08:51:06;;;;;;;5.43;4.93;;;22.90;1.00;;;;;;6157068;23;20398;-78
2021/08/22 08:53:35;;;;;;;4.93;4.50;;;23.20;1.00;;;;;;6155224;23;20405;-80
2021/08/22 08:56:04;;;;;;;5.33;4.30;;;23.30;1.00;;;;;;6156608;23;21352;-80
2021/08/22 08:58:31;;;;;;;5.00;3.90;;;23.50;1.00;;;;;;6159514;23;20444;-80
2021/08/22 09:00:57;;;;;;;4.83;4.20;;;23.50;1.00;;;;;;6134731;23;20424;-78
2021/08/22 09:03:24;;;;;;;4.83;4.30;;;23.40;1.00;;;;;;6164487;23;20502;-81
2021/08/22 09:06:34;;;;;;;5.40;4.90;;;23.30;1.00;;;;;;6170812;23;20907;-81
2021/08/22 09:09:49;;;;;;;4.80;4.30;;;23.30;1.00;;;;;;6170254;23;20405;-80
2021/08/22 09:12:48;;;;;;;3.90;3.60;;;23.30;1.00;;;;;;6170487;23;20414;-81
2021/08/22 09:15:55;;;;;;;5.37;4.87;;;23.40;1.00;;;;;;6170588;23;20403;-81
2021/08/22 09:19:00;;;;;;;6.20;4.20;;;23.60;1.00;;;;;;6179918;23;20415;-80
2021/08/22 09:22:09;;;;;;;4.60;4.20;;;23.80;1.00;;;;;;6181213;23;20406;-80
2021/08/22 09:25:13;;;;;;;4.40;4.00;;;24.20;1.00;;;;;;6147387;23;20446;-80
2021/08/22 09:28:16;;;;;;;5.10;4.67;;;24.50;1.00;;;;;;6139303;23;20484;-79
2021/08/22 09:31:20;;;;;;;4.00;3.70;;;24.60;1.00;;;;;;6162684;23;20834;-82
2021/08/22 09:34:25;;;;;;;4.60;3.60;;;24.90;1.00;;;;;;6164612;23;20393;-80
2021/08/22 09:37:32;;;;;;;4.60;4.20;;;25.30;1.00;;;;;;6136685;23;20417;-80
2021/08/22 09:40:36;;;;;;;4.33;3.93;;;26.50;1.00;;;;;;6164808;23;21372;-81
2021/08/22 09:43:43;;;;;;;4.37;3.97;;;27.20;1.00;;;;;;6171459;23;20378;-83
2021/08/22 09:46:47;;;;;;;6.10;5.17;;;27.80;1.00;;;;;;6117612;23;20512;-83
2021/08/22 09:49:47;;;;;;;5.27;4.77;;;28.40;1.00;;;;;;6167006;23;20399;-82
2021/08/22 09:52:55;;;;;;;7.80;4.43;;;28.10;1.00;;;;;;6168029;23;20414;-83
2021/08/22 09:56:04;;;;;;;4.53;4.13;;;28.10;1.00;;;;;;6124098;23;20439;-82
2021/08/22 09:59:02;;;;;;;4.67;4.27;;;27.80;1.00;;;;;;6086072;23;20382;-82
2021/08/22 10:02:16;;;;;;;4.93;4.53;;;27.10;1.00;;;;;;6172379;23;20433;-81
2021/08/22 10:04:58;;;;;;;5.07;4.60;;;26.30;1.00;;;;;;6079709;23;20424;-83
2021/08/22 10:07:35;;;;;;;4.60;4.20;;;25.70;1.00;;;;;;6171545;23;20413;-82
2021/08/22 10:10:05;;;;;;;5.73;5.30;;;25.30;1.00;;;;;;6168293;23;20466;-82
2021/08/22 10:12:32;;;;;;;6.53;4.80;;;24.80;1.00;;;;;;6140289;23;20443;-83
2021/08/22 10:15:05;;;;;;;5.77;5.27;;;24.50;1.00;;;;;;6169796;23;20366;-83
2021/08/22 10:17:33;;;;;;;5.47;5.00;;;24.40;1.00;;;;;;6165682;23;20429;-84
2021/08/22 10:20:00;;;;;;;4.90;4.40;;;24.20;1.00;;;;;;6138998;23;20369;-84
2021/08/22 10:22:34;;;;;;;5.13;3.93;;;24.20;1.00;;;;;;6168103;23;20488;-84
2021/08/22 10:25:03;;;;;;;5.40;4.50;;;24.20;1.00;;;;;;6167608;23;20449;-83
2021/08/22 10:27:58;;;;;;;5.80;4.87;;;24.30;1.00;;;;;;6144977;23;20430;-83
2021/08/22 10:30:28;;;;;;;5.03;4.07;;;24.50;1.00;;;;;;6178843;23;20385;-85
2021/08/22 10:33:17;;;;;;;9.47;4.50;;;24.50;1.00;;;;;;6178835;23;20408;-83
2021/08/22 10:35:44;;;;;;;7.10;5.30;;;24.50;1.00;;;;;;6188207;23;20365;-87
2021/08/22 10:38:26;;;;;;;5.20;4.60;;;24.50;1.00;;;;;;6186607;23;20409;-83
2021/08/22 10:40:56;;;;;;;5.10;4.30;;;24.50;1.00;;;;;;6163189;23;20546;-82
2021/08/22 10:43:41;;;;;;;6.43;5.37;;;24.50;1.00;;;;;;6161339;23;20411;-84
2021/08/22 10:46:14;;;;;;;6.37;4.80;;;24.40;1.00;;;;;;6186981;23;20375;-87
2021/08/22 10:48:55;;;;;;;6.70;5.40;;;24.40;1.00;;;;;;6188786;23;20361;-89
2021/08/22 10:51:26;;;;;;;11.53;4.97;;;24.30;1.00;;;;;;6189578;23;21277;-87
2021/08/22 10:54:18;;;;;;;8.07;5.50;;;24.20;1.00;;;;;;6162887;23;20415;-84
2021/08/22 10:56:46;;;;;;;5.60;5.00;;;24.10;1.00;;;;;;6186177;23;20430;-82
2021/08/22 10:59:12;;;;;;;6.13;5.53;;;24.00;1.00;;;;;;6160328;23;20451;-82
2021/08/22 11:01:44;;;;;;;7.93;5.50;;;23.90;1.00;;;;;;6186629;23;20370;-83
2021/08/22 11:04:14;;;;;;;5.50;5.00;;;23.80;1.00;;;;;;6185595;23;20405;-81
2021/08/22 11:07:01;;;;;;;8.17;5.93;;;23.70;1.00;;;;;;6157951;23;20379;-83
2021/08/22 11:09:40;;;;;;;11.60;6.30;;;23.60;1.00;;;;;;6184518;23;20368;-86
2021/08/22 11:12:24;;;;;;;5.50;4.97;;;23.40;1.00;;;;;;6184398;23;20395;-83
2021/08/22 11:14:54;;;;;;;8.23;5.50;;;23.10;1.00;;;;;;6170941;23;21254;-83
2021/08/22 11:17:23;;;;;;;6.00;5.40;;;22.80;1.00;;;;;;6161471;23;20410;-83
2021/08/22 11:19:50;;;;;;;6.73;6.13;;;22.40;1.00;;;;;;6177316;23;20413;-84
2021/08/22 11:22:25;;;;;;;7.07;6.37;;;22.20;1.00;;;;;;6181091;23;20371;-83
2021/08/22 11:24:53;;;;;;;7.30;6.60;;;22.10;1.00;;;;;;6168955;23;20438;-83
2021/08/22 11:27:21;;;;;;;11.47;10.43;;;21.90;1.00;;;;;;6134551;23;20910;-83
2021/08/22 11:29:57;;;;;;;9.77;7.67;;;21.70;1.00;;;;;;6136355;23;20382;-81
2021/08/22 11:32:27;;;;;;;11.30;8.50;;;21.40;1.00;;;;;;6129678;23;20511;-83
2021/08/22 11:34:54;;;;;;;9.90;8.77;;;21.20;1.00;;;;;;6153173;23;20412;-80
2021/08/22 11:37:22;;;;;;;9.60;8.10;;;20.90;1.00;;;;;;6127424;23;20479;-79
2021/08/22 11:39:49;;;;;;;9.27;8.47;;;20.60;1.00;;;;;;6155666;23;20764;-82
2021/08/22 11:42:21;;;;;;;10.10;9.20;;;20.20;1.00;;;;;;6129692;23;20428;-83
2021/08/22 11:44:50;;;;;;;9.70;8.87;;;19.90;1.00;;;;;;6129155;23;20446;-84
2021/08/22 11:47:17;;;;;;;10.07;9.00;;;19.70;1.00;;;;;;6156788;23;20391;-84
2021/08/22 11:49:48;;;;;;;9.80;8.47;;;19.50;1.00;;;;;;6156094;23;20450;-82
2021/08/22 11:52:20;;;;;;;10.67;9.50;;;19.30;1.00;;;;;;6154806;23;21079;-84
2021/08/22 11:54:48;;;;;;;9.97;9.17;;;19.20;1.00;;;;;;6156866;23;20443;-82
2021/08/22 11:57:21;;;;;;;9.30;8.57;;;19.20;1.00;;;;;;6130907;23;20399;-84
2021/08/22 11:59:59;;;;;;;9.73;8.80;;;19.20;1.00;;;;;;6155876;23;20427;-84
2021/08/22 12:02:26;;;;;;;11.70;10.07;;;19.10;1.00;;;;;;6130980;23;20411;-83
2021/08/22 12:05:18;;;;;;;11.00;9.97;;;19.20;1.00;;;;;;6161527;23;20422;-84
2021/08/22 12:07:48;;;;;;;10.80;9.80;;;19.30;1.00;;;;;;6159169;23;20386;-84
2021/08/22 12:10:23;;;;;;;11.00;10.00;;;19.40;1.00;;;;;;6129833;23;20387;-83
2021/08/22 12:12:50;;;;;;;12.60;11.13;;;19.40;1.00;;;;;;6157204;23;21680;-84
2021/08/22 12:15:16;;;;;;;13.20;11.77;;;19.60;1.00;;;;;;6158331;23;20408;-85
2021/08/22 12:17:44;;;;;;;12.20;11.00;;;19.70;1.00;;;;;;6157060;23;21279;-82
2021/08/22 12:20:21;;;;;;;12.67;11.40;;;19.80;1.00;;;;;;6156216;23;20405;-83
2021/08/22 12:23:05;;;;;;;11.93;10.83;;;19.90;1.00;;;;;;6162321;23;20406;-83
2021/08/22 12:25:33;;;;;;;13.43;12.20;;;19.80;1.00;;;;;;6180675;23;20503;-82
2021/08/22 12:28:29;;;;;;;12.83;11.53;;;19.80;1.00;;;;;;6179142;23;20405;-83
2021/08/22 12:31:04;;;;;;;11.60;10.53;;;19.70;1.00;;;;;;6180227;23;20390;-86
2021/08/22 12:33:32;;;;;;;12.37;11.07;;;19.60;1.00;;;;;;6151782;23;20391;-82
2021/08/22 12:36:10;;;;;;;13.30;12.03;;;19.50;1.00;;;;;;6149113;23;20371;-82
2021/08/22 12:38:40;;;;;;;15.30;14.10;;;19.40;1.00;;;;;;6148151;23;20375;-81
2021/08/22 12:41:32;;;;;;;14.70;13.03;;;19.40;1.00;;;;;;6174279;23;20383;-80
2021/08/22 12:44:02;;;;;;;14.07;12.57;;;19.30;1.00;;;;;;6174284;23;20438;-80
2021/08/22 12:46:30;;;;;;;16.20;14.50;;;19.30;1.00;;;;;;6177588;23;21090;-83
2021/08/22 12:48:57;;;;;;;16.13;14.43;;;19.40;1.00;;;;;;6179710;23;20446;-81
2021/08/22 12:51:27;;;;;;;15.83;14.33;;;19.30;1.00;;;;;;6178938;23;20454;-81
2021/08/22 12:53:55;;;;;;;15.17;13.57;;;19.30;1.00;;;;;;6179300;23;20387;-83
2021/08/22 12:56:22;;;;;;;14.70;13.40;;;19.30;1.00;;;;;;6152103;23;20375;-82
2021/08/22 12:58:49;;;;;;;15.63;14.23;;;19.40;1.00;;;;;;6177511;23;20437;-81
2021/08/22 13:01:16;;;;;;;15.30;13.90;;;19.40;1.00;;;;;;6177049;23;20397;-81
2021/08/22 13:03:46;;;;;;;14.60;13.27;;;19.30;1.00;;;;;;6168388;23;20417;-82
2021/08/22 13:06:13;;;;;;;15.00;13.50;;;19.30;1.00;;;;;;6138180;23;20454;-81
2021/08/22 13:08:41;;;;;;;15.10;13.87;;;19.30;1.00;;;;;;6137744;23;20441;-83
2021/08/22 13:11:08;;;;;;;15.10;13.70;;;19.30;1.00;;;;;;6174563;23;20422;-82
2021/08/22 13:13:36;;;;;;;17.30;15.63;;;19.30;1.00;;;;;;6177807;23;20400;-82
2021/08/22 13:16:02;;;;;;;16.30;14.83;;;19.30;1.00;;;;;;6174782;23;20478;-83